createdAt,value
2022-10-29T00:00:53.399Z,98334.13
2022-10-29T00:03:20.521Z,98333.31
2022-10-29T00:06:01.437Z,98330.66
2022-10-29T00:08:29.255Z,98327.50
2022-10-29T00:10:56.245Z,98329.06
2022-10-29T00:13:22.579Z,98328.00
2022-10-29T00:15:48.901Z,98326.44
2022-10-29T00:18:15.238Z,98324.16
2022-10-29T00:20:41.652Z,98318.66
2022-10-29T00:23:07.961Z,98322.59
2022-10-29T00:25:34.285Z,98337.44
2022-10-29T00:28:00.567Z,98338.25
2022-10-29T00:30:26.863Z,98334.41
2022-10-29T00:32:53.390Z,98338.72
2022-10-29T00:35:19.826Z,98350.06
2022-10-29T00:37:46.104Z,98349.69
2022-10-29T00:40:12.781Z,98347.72
2022-10-29T00:42:39.081Z,98346.22
2022-10-29T00:45:06.073Z,98356.41
2022-10-29T00:47:36.996Z,98357.50
2022-10-29T00:50:13.385Z,98351.72
2022-10-29T00:52:45.189Z,98354.84
2022-10-29T00:55:15.534Z,98367.69
2022-10-29T00:57:48.607Z,98367.34
2022-10-29T01:00:16.446Z,98370.47
2022-10-29T01:02:43.971Z,98365.81
2022-10-29T01:05:13.321Z,98367.00
2022-10-29T01:07:39.618Z,98370.06
2022-10-29T01:10:06.371Z,98375.50
2022-10-29T01:12:58.006Z,98365.75
2022-10-29T01:15:56.017Z,98359.47
2022-10-29T01:18:37.490Z,98356.34
2022-10-29T01:21:39.657Z,98357.94
2022-10-29T01:24:43.790Z,98355.53
2022-10-29T01:27:24.706Z,98353.28
2022-10-29T01:30:15.599Z,98350.13
2022-10-29T01:33:10.014Z,98345.09
2022-10-29T01:35:51.441Z,98340.03
2022-10-29T01:38:40.335Z,98348.56
2022-10-29T01:41:20.826Z,98357.97
2022-10-29T01:43:55.663Z,98350.91
2022-10-29T01:46:29.134Z,98342.31
2022-10-29T01:49:02.335Z,98336.91
2022-10-29T01:51:32.341Z,98331.47
2022-10-29T01:54:01.345Z,98335.69
2022-10-29T01:56:27.668Z,98336.84
2022-10-29T01:58:59.205Z,98336.06
2022-10-29T02:01:50.487Z,98332.97
2022-10-29T02:04:49.103Z,98328.25
2022-10-29T02:07:45.193Z,98323.66
2022-10-29T02:10:32.388Z,98334.16
2022-10-29T02:12:59.624Z,98345.97
2022-10-29T02:15:37.665Z,98359.75
2022-10-29T02:18:07.591Z,98340.09
2022-10-29T02:20:34.732Z,98323.28
2022-10-29T02:23:01.301Z,98326.88
2022-10-29T02:25:28.001Z,98320.22
2022-10-29T02:27:54.624Z,98313.97
2022-10-29T02:30:21.099Z,98305.03
2022-10-29T02:32:47.434Z,98296.81
2022-10-29T02:35:13.704Z,98308.91
2022-10-29T02:37:40.013Z,98312.81
2022-10-29T02:40:06.858Z,98310.44
2022-10-29T02:42:35.342Z,98304.31
2022-10-29T02:45:01.758Z,98294.16
2022-10-29T02:47:28.409Z,98287.44
2022-10-29T02:49:54.697Z,98285.13
2022-10-29T02:52:21.035Z,98294.09
2022-10-29T02:54:47.305Z,98296.03
2022-10-29T02:57:13.670Z,98294.84
2022-10-29T02:59:39.967Z,98311.34
2022-10-29T03:02:06.373Z,98324.69
2022-10-29T03:04:32.894Z,98327.78
2022-10-29T03:07:00.174Z,98325.41
2022-10-29T03:09:26.501Z,98301.19
2022-10-29T03:11:52.865Z,98304.31
2022-10-29T03:14:19.153Z,98298.06
2022-10-29T03:16:45.501Z,98300.38
2022-10-29T03:19:11.834Z,98308.97
2022-10-29T03:21:38.200Z,98307.81
2022-10-29T03:24:05.257Z,98314.44
2022-10-29T03:26:31.583Z,98318.28
2022-10-29T03:28:57.925Z,98313.63
2022-10-29T03:31:24.323Z,98317.50
2022-10-29T03:33:50.631Z,98327.63
2022-10-29T03:36:17.170Z,98315.88
2022-10-29T03:38:43.495Z,98310.03
2022-10-29T03:41:10.917Z,98303.28
2022-10-29T03:43:38.354Z,98309.59
2022-10-29T03:46:05.903Z,98300.22
2022-10-29T03:48:32.610Z,98299.00
2022-10-29T03:51:01.454Z,98302.91
2022-10-29T03:53:28.997Z,98304.44
2022-10-29T03:55:56.939Z,98300.13
2022-10-29T03:58:23.975Z,98305.63
2022-10-29T04:00:57.978Z,98311.09
2022-10-29T04:03:24.912Z,98314.63
2022-10-29T04:05:51.275Z,98314.25
2022-10-29T04:08:17.902Z,98312.69
2022-10-29T04:10:48.089Z,98301.69
2022-10-29T04:13:15.485Z,98304.13
2022-10-29T04:15:41.815Z,98311.94
2022-10-29T04:18:08.909Z,98305.31
2022-10-29T04:21:26.645Z,98308.84
2022-10-29T04:28:54.597Z,98319.81
2022-10-29T04:31:20.990Z,98316.31
2022-10-29T04:33:47.429Z,98317.91
2022-10-29T04:36:14.125Z,98314.38
2022-10-29T04:38:40.536Z,98311.66
2022-10-29T04:41:06.928Z,98306.59
2022-10-29T04:43:33.217Z,98306.59
2022-10-29T04:45:59.832Z,98306.22
2022-10-29T04:48:28.309Z,98313.28
2022-10-29T04:50:55.324Z,98312.84
2022-10-29T04:53:21.883Z,98305.41
2022-10-29T04:55:48.439Z,98300.31
2022-10-29T04:58:17.759Z,98297.22
2022-10-29T05:00:45.064Z,98306.66
2022-10-29T05:03:11.681Z,98317.69
2022-10-29T05:05:39.049Z,98329.78
2022-10-29T05:08:06.202Z,98327.03
2022-10-29T05:10:34.678Z,98332.13
2022-10-29T05:13:03.430Z,98330.91
2022-10-29T05:15:30.545Z,98334.44
2022-10-29T05:17:57.817Z,98329.34
2022-10-29T05:20:24.818Z,98334.41
2022-10-29T05:22:58.494Z,98328.91
2022-10-29T05:25:24.793Z,98332.03
2022-10-29T05:27:51.108Z,98327.72
2022-10-29T05:30:17.533Z,98330.41
2022-10-29T05:32:44.441Z,98327.66
2022-10-29T05:35:10.719Z,98335.13
2022-10-29T05:37:37.006Z,98333.16
2022-10-29T05:40:03.448Z,98325.75
2022-10-29T05:42:29.730Z,98337.47
2022-10-29T05:44:56.027Z,98336.28
2022-10-29T05:47:22.308Z,98336.28
2022-10-29T05:49:48.629Z,98337.06
2022-10-29T05:52:14.951Z,98339.41
2022-10-29T05:54:41.239Z,98340.63
2022-10-29T05:57:07.547Z,98331.25
2022-10-29T05:59:34.012Z,98341.06
2022-10-29T06:02:00.528Z,98348.13
2022-10-29T06:04:26.925Z,98336.31
2022-10-29T06:06:53.278Z,98344.97
2022-10-29T06:09:19.644Z,98341.81
2022-10-29T06:11:46.564Z,98335.91
2022-10-29T06:14:12.902Z,98338.28
2022-10-29T06:16:39.207Z,98338.63
2022-10-29T06:19:05.504Z,98347.59
2022-10-29T06:21:31.770Z,98347.22
2022-10-29T06:23:58.060Z,98339.34
2022-10-29T06:26:24.323Z,98342.50
2022-10-29T06:28:50.818Z,98339.34
2022-10-29T06:31:17.106Z,98347.94
2022-10-29T06:33:43.385Z,98340.06
2022-10-29T06:36:09.693Z,98354.53
2022-10-29T06:38:36.073Z,98352.13
2022-10-29T06:41:02.361Z,98349.75
2022-10-29T06:43:28.776Z,98357.94
2022-10-29T06:45:55.576Z,98363.00
2022-10-29T06:48:24.272Z,98355.59
2022-10-29T06:50:51.573Z,98353.63
2022-10-29T06:53:18.022Z,98353.19
2022-10-29T06:55:44.637Z,98353.91
2022-10-29T06:58:13.758Z,98355.06
2022-10-29T07:00:41.161Z,98364.00
2022-10-29T07:03:11.714Z,98365.50
2022-10-29T07:05:37.996Z,98359.97
2022-10-29T07:08:04.509Z,98352.81
2022-10-29T07:10:32.644Z,98361.06
2022-10-29T07:12:59.566Z,98361.72
2022-10-29T07:15:27.756Z,98368.34
2022-10-29T07:17:59.722Z,98353.44
2022-10-29T07:20:27.937Z,98354.91
2022-10-29T07:22:54.257Z,98356.69
2022-10-29T07:25:20.786Z,98359.75
2022-10-29T07:27:47.215Z,98350.66
2022-10-29T07:30:13.787Z,98355.19
2022-10-29T07:32:40.120Z,98360.69
2022-10-29T07:35:06.693Z,98360.63
2022-10-29T07:37:33.241Z,98356.34
2022-10-29T07:39:59.521Z,98356.50
2022-10-29T07:42:25.917Z,98354.88
2022-10-29T07:44:52.206Z,98357.22
2022-10-29T07:47:18.488Z,98363.47
2022-10-29T07:49:44.768Z,98367.28
2022-10-29T07:52:11.067Z,98359.19
2022-10-29T07:54:37.351Z,98359.31
2022-10-29T07:57:04.746Z,98355.50
2022-10-29T07:59:31.012Z,98358.31
2022-10-29T08:01:57.396Z,98363.81
2022-10-29T08:04:23.761Z,98361.44
2022-10-29T08:06:50.038Z,98367.84
2022-10-29T08:09:16.529Z,98362.94
2022-10-29T08:11:43.034Z,98360.19
2022-10-29T08:14:09.368Z,98362.34
2022-10-29T08:16:38.610Z,98371.28
2022-10-29T08:19:04.881Z,98363.97
2022-10-29T08:21:31.181Z,98366.38
2022-10-29T08:23:57.462Z,98366.19
2022-10-29T08:26:23.755Z,98372.06
2022-10-29T08:28:50.061Z,98376.97
2022-10-29T08:31:16.629Z,98382.41
2022-10-29T08:33:42.952Z,98377.22
2022-10-29T08:36:09.379Z,98370.81
2022-10-29T08:38:35.687Z,98371.63
2022-10-29T08:41:44.028Z,98374.94
2022-10-29T08:44:44.508Z,98370.28
2022-10-29T08:47:20.436Z,98382.91
2022-10-29T08:49:55.988Z,98378.59
2022-10-29T08:52:28.394Z,98375.97
2022-10-29T08:55:08.075Z,98379.16
2022-10-29T08:57:39.899Z,98374.81
2022-10-29T09:00:19.854Z,98369.50
2022-10-29T09:02:46.464Z,98369.34
2022-10-29T09:05:19.111Z,98365.38
2022-10-29T09:08:11.075Z,98360.16
2022-10-29T09:10:44.166Z,98359.34
2022-10-29T09:13:32.827Z,98353.94
2022-10-29T09:16:23.649Z,98351.09
2022-10-29T09:19:23.885Z,98359.91
2022-10-29T09:22:02.377Z,98356.69
2022-10-29T09:24:36.324Z,98353.81
2022-10-29T09:27:22.306Z,98355.81
2022-10-29T09:29:57.791Z,98360.31
2022-10-29T09:32:31.819Z,98348.31
2022-10-29T09:35:04.117Z,98351.13
2022-10-29T09:37:49.110Z,98345.63
2022-10-29T09:40:37.010Z,98348.22
2022-10-29T09:43:13.203Z,98351.38
2022-10-29T09:45:54.318Z,98351.06
2022-10-29T09:48:28.412Z,98344.75
2022-10-29T09:51:10.672Z,98345.75
2022-10-29T09:53:37.165Z,98338.22
2022-10-29T09:56:07.388Z,98343.56
2022-10-29T09:58:38.776Z,98342.75
2022-10-29T10:01:05.271Z,98335.66
2022-10-29T10:03:42.654Z,98332.91
2022-10-29T10:06:10.588Z,98330.22
2022-10-29T10:09:05.822Z,98335.75
2022-10-29T10:11:40.512Z,98331.06
2022-10-29T10:14:18.113Z,98329.84
2022-10-29T10:16:44.661Z,98326.16
2022-10-29T10:19:26.513Z,98331.97
2022-10-29T10:21:58.555Z,98327.44
2022-10-29T10:24:33.580Z,98310.50
2022-10-29T10:27:01.285Z,98317.81
2022-10-29T10:29:28.338Z,98310.97
2022-10-29T10:31:57.463Z,98314.84
2022-10-29T10:34:24.781Z,98307.91
2022-10-29T10:36:57.326Z,98300.63
2022-10-29T10:39:49.878Z,98299.22
2022-10-29T10:42:24.064Z,98299.59
2022-10-29T10:44:53.015Z,98292.44
2022-10-29T10:47:21.992Z,98291.34
2022-10-29T10:49:49.091Z,98289.81
2022-10-29T10:52:21.882Z,98282.84
2022-10-29T10:55:22.825Z,98288.38
2022-10-29T10:57:59.027Z,98280.81
2022-10-29T11:00:28.623Z,98275.56
2022-10-29T11:03:02.387Z,98280.81
2022-10-29T11:05:33.667Z,98276.34
2022-10-29T11:08:08.749Z,98272.72
2022-10-29T11:10:45.804Z,98270.72
2022-10-29T11:13:20.567Z,98260.81
2022-10-29T11:16:20.788Z,98264.09
2022-10-29T11:19:00.918Z,98259.25
2022-10-29T11:21:38.084Z,98260.31
2022-10-29T11:24:17.878Z,98254.34
2022-10-29T11:26:53.360Z,98252.00
2022-10-29T11:29:57.826Z,98247.59
2022-10-29T11:32:33.122Z,98247.94
2022-10-29T11:35:13.584Z,98245.94
2022-10-29T11:38:16.734Z,98241.47
2022-10-29T11:40:49.828Z,98239.34
2022-10-29T11:43:19.642Z,98240.88
2022-10-29T11:46:04.296Z,98233.69
2022-10-29T11:49:22.847Z,98228.72
2022-10-29T11:52:08.272Z,98225.84
2022-10-29T11:54:50.477Z,98224.78
2022-10-29T11:57:39.744Z,98223.03
2022-10-29T12:00:20.839Z,98209.00
2022-10-29T12:03:15.684Z,98217.53
2022-10-29T12:05:53.119Z,98219.00
2022-10-29T12:08:31.338Z,98205.63
2022-10-29T12:11:20.787Z,98209.34
2022-10-29T12:14:16.882Z,98198.66
2022-10-29T12:16:59.175Z,98197.56
2022-10-29T12:19:42.194Z,98190.13
2022-10-29T12:22:14.313Z,98194.91
2022-10-29T12:24:53.317Z,98194.44
2022-10-29T12:27:24.755Z,98193.56
2022-10-29T12:30:02.928Z,98192.31
2022-10-29T12:32:57.705Z,98184.03
2022-10-29T12:35:44.458Z,98195.63
2022-10-29T12:38:56.049Z,98191.00
2022-10-29T12:41:32.479Z,98186.56
2022-10-29T12:44:27.561Z,98176.06
2022-10-29T12:47:02.577Z,98169.22
2022-10-29T12:49:51.701Z,98172.22
2022-10-29T12:52:39.533Z,98167.13
2022-10-29T12:55:09.722Z,98164.78
2022-10-29T12:57:36.079Z,98169.34
2022-10-29T13:00:24.183Z,98154.69
2022-10-29T13:02:52.047Z,98150.13
2022-10-29T13:05:19.949Z,98156.34
2022-10-29T13:07:46.201Z,98151.22
2022-10-29T13:10:21.706Z,98144.81
2022-10-29T13:13:16.163Z,98149.06
2022-10-29T13:15:44.009Z,98143.84
2022-10-29T13:18:31.458Z,98132.06
2022-10-29T13:20:57.754Z,98133.22
2022-10-29T13:23:23.994Z,98128.66
2022-10-29T13:25:53.824Z,98132.25
2022-10-29T13:28:20.394Z,98135.50
2022-10-29T13:30:59.001Z,98132.00
2022-10-29T13:33:28.370Z,98127.19
2022-10-29T13:36:16.396Z,98125.56
2022-10-29T13:39:07.434Z,98125.03
2022-10-29T13:41:41.886Z,98118.81
2022-10-29T13:44:19.062Z,98126.16
2022-10-29T13:47:00.996Z,98124.78
2022-10-29T13:49:34.204Z,98121.84
2022-10-29T13:52:03.869Z,98121.00
2022-10-29T13:54:50.217Z,98122.03
2022-10-29T13:57:22.474Z,98123.00
2022-10-29T14:00:17.949Z,98122.25
2022-10-29T14:02:58.402Z,98117.66
2022-10-29T14:05:29.885Z,98119.97
2022-10-29T14:08:15.077Z,98113.38
2022-10-29T14:10:41.441Z,98102.22
2022-10-29T14:13:10.485Z,98106.66
2022-10-29T14:15:39.058Z,98104.91
2022-10-29T14:18:18.981Z,98106.06
2022-10-29T14:20:55.655Z,98099.31
2022-10-29T14:23:22.485Z,98101.63
2022-10-29T14:25:54.165Z,98098.75
2022-10-29T14:28:23.265Z,98104.56
2022-10-29T14:31:01.245Z,98109.22
2022-10-29T14:33:35.954Z,98104.28
2022-10-29T14:36:34.623Z,98089.88
2022-10-29T14:39:28.743Z,98099.38
2022-10-29T14:42:04.401Z,98093.75
2022-10-29T14:44:32.630Z,98095.47
2022-10-29T14:47:22.778Z,98100.38
2022-10-29T14:49:51.526Z,98096.13
2022-10-29T14:52:38.197Z,98095.28
2022-10-29T14:55:16.264Z,98095.59
2022-10-29T14:57:49.082Z,98098.41
2022-10-29T15:00:27.099Z,98099.66
2022-10-29T15:02:55.029Z,98104.38
2022-10-29T15:05:30.421Z,98102.38
2022-10-29T15:08:09.635Z,98102.88
2022-10-29T15:10:55.458Z,98112.78
2022-10-29T15:13:27.830Z,98103.84
2022-10-29T15:15:59.001Z,98095.81
2022-10-29T15:18:25.990Z,98102.91
2022-10-29T15:20:54.760Z,98101.81
2022-10-29T15:23:26.807Z,98093.47
2022-10-29T15:26:20.495Z,98097.19
2022-10-29T15:28:50.773Z,98099.19
2022-10-29T15:31:25.083Z,98090.84
2022-10-29T15:33:53.668Z,98092.06
2022-10-29T15:36:20.690Z,98097.28
2022-10-29T15:38:52.016Z,98096.03
2022-10-29T15:41:19.990Z,98099.06
2022-10-29T15:43:57.608Z,98096.66
2022-10-29T15:46:26.934Z,98087.22
2022-10-29T15:48:53.866Z,98100.72
2022-10-29T15:51:26.321Z,98092.47
2022-10-29T15:53:55.694Z,98097.81
2022-10-29T15:56:22.169Z,98091.88
2022-10-29T15:58:48.554Z,98097.47
2022-10-29T16:01:16.921Z,98091.41
2022-10-29T16:03:43.985Z,98097.47
2022-10-29T16:06:11.229Z,98101.25
2022-10-29T16:08:44.284Z,98105.31
2022-10-29T16:11:16.547Z,98101.09
2022-10-29T16:13:42.883Z,98096.25
2022-10-29T16:16:14.393Z,98097.75
2022-10-29T16:18:40.677Z,98094.09
2022-10-29T16:21:07.261Z,98095.09
2022-10-29T16:23:37.585Z,98103.31
2022-10-29T16:26:04.377Z,98098.00
2022-10-29T16:28:30.656Z,98093.59
2022-10-29T16:30:59.116Z,98102.44
2022-10-29T16:33:26.110Z,98103.09
2022-10-29T16:35:52.378Z,98098.22
2022-10-29T16:38:18.908Z,98097.69
2022-10-29T16:40:45.657Z,98097.78
2022-10-29T16:43:11.958Z,98094.81
2022-10-29T16:45:38.617Z,98096.56
2022-10-29T16:48:05.165Z,98090.47
2022-10-29T16:50:33.583Z,98093.78
2022-10-29T16:53:02.721Z,98088.47
2022-10-29T16:55:29.893Z,98096.97
2022-10-29T16:57:56.932Z,98091.31
2022-10-29T17:00:25.797Z,98090.41
2022-10-29T17:02:52.453Z,98093.25
2022-10-29T17:05:18.778Z,98092.56
2022-10-29T17:07:45.110Z,98090.44
2022-10-29T17:10:11.406Z,98095.28
2022-10-29T17:12:37.704Z,98096.38
2022-10-29T17:15:04.418Z,98090.06
2022-10-29T17:17:31.268Z,98093.34
2022-10-29T17:19:58.072Z,98095.78
2022-10-29T17:22:24.450Z,98086.50
2022-10-29T17:24:50.737Z,98094.41
2022-10-29T17:27:17.046Z,98096.50
2022-10-29T17:29:43.365Z,98095.13
2022-10-29T17:32:10.109Z,98090.06
2022-10-29T17:34:36.502Z,98099.03
2022-10-29T17:37:03.482Z,98094.63
2022-10-29T17:39:29.950Z,98102.56
2022-10-29T17:41:56.275Z,98100.69
2022-10-29T17:44:22.553Z,98108.03
2022-10-29T17:46:48.854Z,98101.03
2022-10-29T17:49:15.149Z,98113.59
2022-10-29T17:51:41.445Z,98111.72
2022-10-29T17:54:07.714Z,98111.81
2022-10-29T17:56:33.999Z,98106.13
2022-10-29T17:59:00.280Z,98102.94
2022-10-29T18:01:26.685Z,98103.38
2022-10-29T18:03:53.001Z,98103.81
2022-10-29T18:06:19.304Z,98101.22
2022-10-29T18:08:45.636Z,98100.44
2022-10-29T18:11:15.381Z,98108.81
2022-10-29T18:13:42.946Z,98105.69
2022-10-29T18:16:14.382Z,98107.03
2022-10-29T18:18:54.767Z,98105.13
2022-10-29T18:21:28.369Z,98111.50
2022-10-29T18:23:54.654Z,98109.53
2022-10-29T18:26:32.858Z,98117.09
2022-10-29T18:29:01.568Z,98117.94
2022-10-29T18:31:30.487Z,98119.09
2022-10-29T18:33:59.755Z,98113.19
2022-10-29T18:36:26.265Z,98105.75
2022-10-29T18:38:54.791Z,98109.28
2022-10-29T18:41:22.293Z,98108.56
2022-10-29T18:43:49.243Z,98106.22
2022-10-29T18:46:16.325Z,98098.41
2022-10-29T18:48:46.142Z,98096.84
2022-10-29T18:51:15.642Z,98094.25
2022-10-29T18:53:41.969Z,98091.41
2022-10-29T18:56:11.181Z,98095.34
2022-10-29T18:58:37.970Z,98096.91
2022-10-29T19:01:13.348Z,98087.72
2022-10-29T19:03:40.537Z,98094.69
2022-10-29T19:06:09.656Z,98085.72
2022-10-29T19:08:37.837Z,98090.59
2022-10-29T19:11:07.113Z,98080.84
2022-10-29T19:13:33.837Z,98080.94
2022-10-29T19:16:02.159Z,98094.38
2022-10-29T19:18:30.317Z,98091.28
2022-10-29T19:21:03.737Z,98092.03
2022-10-29T19:23:30.130Z,98093.03
2022-10-29T19:25:56.454Z,98094.66
2022-10-29T19:28:23.073Z,98087.59
2022-10-29T19:30:49.370Z,98090.34
2022-10-29T19:33:15.641Z,98094.09
2022-10-29T19:35:41.925Z,98094.19
2022-10-29T19:38:08.206Z,98095.09
2022-10-29T19:40:34.494Z,98088.41
2022-10-29T19:43:00.762Z,98093.53
2022-10-29T19:45:27.051Z,98093.97
2022-10-29T19:47:53.368Z,98099.00
2022-10-29T19:50:19.774Z,98101.31
2022-10-29T19:52:46.057Z,98092.72
2022-10-29T19:55:14.374Z,98097.34
2022-10-29T19:57:40.671Z,98096.59
2022-10-29T20:00:07.593Z,98101.31
2022-10-29T20:02:33.884Z,98098.69
2022-10-29T20:05:00.178Z,98095.94
2022-10-29T20:07:26.478Z,98088.19
2022-10-29T20:09:52.774Z,98089.78
2022-10-29T20:12:19.041Z,98094.53
2022-10-29T20:14:45.317Z,98087.63
2022-10-29T20:17:11.645Z,98086.06
2022-10-29T20:19:37.942Z,98086.34
2022-10-29T20:22:04.243Z,98088.31
2022-10-29T20:24:30.554Z,98089.94
2022-10-29T20:26:56.846Z,98089.19
2022-10-29T20:29:23.130Z,98090.00
2022-10-29T20:31:49.494Z,98087.63
2022-10-29T20:34:15.900Z,98085.44
2022-10-29T20:36:46.067Z,98083.44
2022-10-29T20:39:16.448Z,98089.81
2022-10-29T20:41:43.374Z,98094.09
2022-10-29T20:44:09.896Z,98089.72
2022-10-29T20:46:40.872Z,98090.16
2022-10-29T20:49:09.715Z,98101.25
2022-10-29T20:51:36.032Z,98094.94
2022-10-29T20:54:02.674Z,98095.88
2022-10-29T20:56:29.074Z,98098.16
2022-10-29T20:58:55.507Z,98093.91
2022-10-29T21:01:24.334Z,98095.53
2022-10-29T21:03:51.013Z,98093.13
2022-10-29T21:06:18.025Z,98088.81
2022-10-29T21:08:45.407Z,98095.19
2022-10-29T21:11:12.916Z,98087.88
2022-10-29T21:13:39.342Z,98086.69
2022-10-29T21:16:27.304Z,98089.44
2022-10-29T21:18:55.946Z,98097.69
2022-10-29T21:21:22.738Z,98100.16
2022-10-29T21:23:49.095Z,98084.47
2022-10-29T21:26:18.027Z,98087.72
2022-10-29T21:28:44.603Z,98087.06
2022-10-29T21:31:11.290Z,98087.06
2022-10-29T21:33:37.861Z,98092.22
2022-10-29T21:36:05.114Z,98090.34
2022-10-29T21:38:32.609Z,98090.78
2022-10-29T21:41:00.674Z,98091.25
2022-10-29T21:43:27.008Z,98090.16
2022-10-29T21:45:53.541Z,98087.41
2022-10-29T21:48:20.363Z,98093.75
2022-10-29T21:50:47.109Z,98086.03
2022-10-29T21:53:13.700Z,98091.63
2022-10-29T21:55:40.055Z,98094.81
2022-10-29T21:58:07.144Z,98100.28
2022-10-29T22:00:33.466Z,98090.50
2022-10-29T22:03:04.316Z,98089.06
2022-10-29T22:05:31.306Z,98094.09
2022-10-29T22:07:58.404Z,98082.00
2022-10-29T22:10:25.136Z,98087.97
2022-10-29T22:12:51.443Z,98092.63
2022-10-29T22:15:17.746Z,98090.72
2022-10-29T22:17:44.052Z,98096.72
2022-10-29T22:20:10.866Z,98088.06
2022-10-29T22:22:37.147Z,98088.91
2022-10-29T22:25:03.678Z,98089.38
2022-10-29T22:27:30.109Z,98089.31
2022-10-29T22:29:56.384Z,98088.91
2022-10-29T22:32:22.669Z,98087.44
2022-10-29T22:34:49.043Z,98077.19
2022-10-29T22:37:15.313Z,98081.53
2022-10-29T22:39:41.635Z,98082.72
2022-10-29T22:42:07.934Z,98080.44
2022-10-29T22:44:34.241Z,98080.44
2022-10-29T22:47:00.531Z,98082.88
2022-10-29T22:49:26.826Z,98082.53
2022-10-29T22:51:57.231Z,98082.88
2022-10-29T22:54:26.780Z,98076.97
2022-10-29T22:56:53.059Z,98073.53
2022-10-29T22:59:19.343Z,98074.31
2022-10-29T23:01:45.961Z,98079.91
2022-10-29T23:04:12.440Z,98070.50
2022-10-29T23:06:38.850Z,98079.13
2022-10-29T23:09:05.325Z,98082.72
2022-10-29T23:11:34.785Z,98077.53
2022-10-29T23:14:02.010Z,98077.28
2022-10-29T23:16:30.218Z,98074.16
2022-10-29T23:18:59.528Z,98080.81
2022-10-29T23:21:25.912Z,98076.91
2022-10-29T23:23:54.265Z,98078.56
2022-10-29T23:26:21.701Z,98079.75
2022-10-29T23:28:48.911Z,98074.72
2022-10-29T23:31:18.381Z,98077.16
2022-10-29T23:33:46.586Z,98081.84
2022-10-29T23:36:14.273Z,98072.44
2022-10-29T23:38:40.928Z,98084.19
2022-10-29T23:41:07.648Z,98078.34
2022-10-29T23:43:34.305Z,98072.50
2022-10-29T23:46:01.169Z,98074.84
2022-10-29T23:48:27.629Z,98074.97
2022-10-29T23:50:54.334Z,98063.25
2022-10-29T23:53:20.683Z,98069.16
2022-10-29T23:55:46.973Z,98064.88
2022-10-29T23:58:14.313Z,98064.94
